TimeAKST,TemperatureF,Dew PointF,Humidity,Sea Level PressureIn,VisibilityMPH,Wind Direction,Wind SpeedMPH,Gust SpeedMPH,PrecipitationIn,Events,Conditions,WindDirDegrees,DateUTC
12:53 AM,-15.0,-20.0,78,30.13,1.0,WNW,3.5,-,N/A,,Mist,290,2013-01-10 09:53:00
1:53 AM,-15.0,-20.0,78,30.13,2.0,West,4.6,-,N/A,,Overcast,270,2013-01-10 10:53:00
2:53 AM,-16.1,-20.9,79,30.12,1.2,WNW,4.6,-,N/A,,Overcast,290,2013-01-10 11:53:00
3:29 AM,-16.6,-23.8,70,30.10,3.0,WNW,5.8,-,N/A,,Overcast,290,2013-01-10 12:29:00
3:53 AM,-17.0,-23.1,74,30.11,1.5,WNW,4.6,-,N/A,,Overcast,300,2013-01-10 12:53:00
4:07 AM,-16.6,-23.8,70,30.09,0.5,Calm,Calm,-,N/A,Fog,Light Freezing Fog,0,2013-01-10 13:07:00
4:31 AM,-18.4,-23.8,76,30.10,1.0,West,3.5,-,N/A,,Mist,270,2013-01-10 13:31:00
4:53 AM,-18.9,-24.0,78,30.10,3.0,West,3.5,-,N/A,,Overcast,280,2013-01-10 13:53:00
5:24 AM,-18.4,-23.8,76,30.10,1.8,West,4.6,-,N/A,,Overcast,260,2013-01-10 14:24:00
5:39 AM,-20.2,-25.6,76,30.10,3.0,West,3.5,-,N/A,,Overcast,260,2013-01-10 14:39:00
5:53 AM,-18.9,-25.1,74,30.11,1.5,Calm,Calm,-,N/A,,Overcast,0,2013-01-10 14:53:00
6:30 AM,-20.2,-27.4,69,30.09,0.8,West,4.6,-,N/A,,Mist,280,2013-01-10 15:30:00
6:53 AM,-20.9,-26.0,77,30.11,1.2,West,3.5,-,N/A,,Overcast,270,2013-01-10 15:53:00
7:13 AM,-20.2,-27.4,69,30.09,4.0,West,3.5,-,N/A,,Mostly Cloudy,270,2013-01-10 16:13:00
7:17 AM,-20.2,-27.4,69,30.09,5.0,West,3.5,-,N/A,,Partly Cloudy,270,2013-01-10 16:17:00
7:53 AM,-23.1,-29.0,74,30.10,6.0,West,5.8,-,N/A,,Mostly Cloudy,260,2013-01-10 16:53:00
8:32 AM,-23.8,-27.4,83,30.09,10.0,West,5.8,-,N/A,,Scattered Clouds,260,2013-01-10 17:32:00
8:53 AM,-23.1,-29.9,70,30.12,6.0,West,5.8,-,N/A,,Scattered Clouds,260,2013-01-10 17:53:00
9:53 AM,-18.9,-26.0,70,30.11,6.0,NNW,3.5,-,N/A,,Mostly Cloudy,340,2013-01-10 18:53:00
10:53 AM,-20.9,-27.9,70,30.12,10.0,WSW,3.5,-,N/A,,Overcast,250,2013-01-10 19:53:00
11:25 AM,-20.2,-27.4,69,30.11,10.0,WSW,3.5,-,N/A,,Overcast,250,2013-01-10 20:25:00
11:53 AM,-20.0,-27.0,70,30.12,10.0,Calm,Calm,-,N/A,,Overcast,0,2013-01-10 20:53:00
12:32 PM,-18.4,-25.6,70,30.11,10.0,NNW,5.8,-,N/A,,Overcast,340,2013-01-10 21:32:00
12:53 PM,-20.0,-26.0,74,30.12,10.0,Calm,Calm,-,N/A,,Overcast,0,2013-01-10 21:53:00
1:03 PM,-18.4,-25.6,70,30.11,10.0,Calm,Calm,-,N/A,,Overcast,0,2013-01-10 22:03:00
1:53 PM,-17.0,-25.1,67,30.13,9.0,Calm,Calm,-,N/A,Snow,Light Snow,0,2013-01-10 22:53:00
2:53 PM,-18.0,-24.0,74,30.14,5.0,Calm,Calm,-,N/A,,Overcast,0,2013-01-10 23:53:00
3:53 PM,-18.9,-25.1,74,30.15,7.0,Calm,Calm,-,N/A,,Overcast,0,2013-01-11 00:53:00
3:59 PM,-20.2,-25.6,76,30.14,5.0,Calm,Calm,-,N/A,,Overcast,0,2013-01-11 00:59:00
4:06 PM,-20.2,-27.4,69,30.14,5.0,Calm,Calm,-,N/A,,Overcast,0,2013-01-11 01:06:00
4:53 PM,-23.1,-27.9,78,30.16,3.0,Calm,Calm,-,N/A,,Overcast,0,2013-01-11 01:53:00
5:53 PM,-20.9,-27.9,70,30.15,6.0,North,4.6,-,N/A,,Partly Cloudy,360,2013-01-11 02:53:00
6:53 PM,-20.9,-27.0,73,30.16,10.0,Calm,Calm,-,N/A,,Partly Cloudy,0,2013-01-11 03:53:00
7:19 PM,-20.2,-27.4,69,30.16,10.0,Calm,Calm,-,N/A,,Partly Cloudy,0,2013-01-11 04:19:00
7:53 PM,-20.9,-27.9,70,30.17,10.0,Calm,Calm,-,N/A,,Partly Cloudy,0,2013-01-11 04:53:00
8:53 PM,-26.0,-32.1,73,30.18,10.0,Calm,Calm,-,N/A,,Partly Cloudy,0,2013-01-11 05:53:00
9:53 PM,-24.0,-29.9,74,30.18,10.0,Calm,Calm,-,N/A,,Mostly Cloudy,0,2013-01-11 06:53:00
10:53 PM,-25.1,-31.0,74,30.18,10.0,Calm,Calm,-,N/A,,Mostly Cloudy,0,2013-01-11 07:53:00
11:53 PM,-24.0,-29.9,74,30.18,10.0,Calm,Calm,-,N/A,,Clear,0,2013-01-11 08:53:00